Tbilisi International Airport (UGTB)

tbilisi-port

UGTB, Airport temperature: C, qnh:1022 hPa.

 

Tbilisi International Airport

IATA: TBS, ICAO: UGTB

Charts: JEPPESEN

МЕТАR:  UGTB 021830Z 31008KT CAVOK 04/01 Q1022 NOSIG

Shota Rustaveli Tbilisi International Airport formerly Novo-Alexeyevka International Airport, is the main international airport in Georgia, located 17 km (11 mi) southeast of the capital Tbilisi. February 2007 saw the completion of a reconstruction project, with the construction of a new international terminal, a car park, improvements to the apron, taxiway and runway and the acquisition of ground handling equipment. The capacity of the new terminal building is 2.8 million passengers per year.

Runways
Direction Length Surface
13R/31L 3000 m Concrete